Terminal Aerodrome Forecast
Issued by NWS

Home | Current Version | Previous Version | Graphics & Text | Print | Product List | Glossary On
Versions: 1 2 3 4 5 6 7 8 9 10 11 12 13 14 15 16 17 18 19 20
000
FTUS43 KGRB 131100
TAFATW
TAF
KATW 131136Z 1312/1412 36009KT 4SM BR OVC005
      TEMPO 1312/1316 2SM BR OVC002
     FM131600 01009KT 4SM BR OVC006
     FM132000 03012G20KT 3SM RA BR OVC005
     FM140300 36015G22KT 4SM -RA BR OVC005
     FM140700 35018G28KT 2SM -RASN OVC005=

USA.gov is the U.S. government's official web portal to all federal, state and local government web resources and services.